sensor_id;sensor_type;location;lat;lon;timestamp;temperature;humidity
7360;DHT22;3720;48.274;7.796;2023-03-14T00:02:21;11.90;99.90
7360;DHT22;3720;48.274;7.796;2023-03-14T00:04:54;12.00;99.90
7360;DHT22;3720;48.274;7.796;2023-03-14T00:07:27;12.00;99.90
7360;DHT22;3720;48.274;7.796;2023-03-14T00:10:05;12.00;99.90
7360;DHT22;3720;48.274;7.796;2023-03-14T00:12:38;12.10;99.90
7360;DHT22;3720;48.274;7.796;2023-03-14T00:15:11;12.10;99.90
7360;DHT22;3720;48.274;7.796;2023-03-14T00:17:43;12.10;99.90
7360;DHT22;3720;48.274;7.796;2023-03-14T00:20:15;12.10;99.90
7360;DHT22;3720;48.274;7.796;2023-03-14T00:22:48;12.20;99.90
7360;DHT22;3720;48.274;7.796;2023-03-14T00:25:21;12.20;99.90
7360;DHT22;3720;48.274;7.796;2023-03-14T00:27:53;12.20;99.90
7360;DHT22;3720;48.274;7.796;2023-03-14T00:30:25;12.20;99.90
7360;DHT22;3720;48.274;7.796;2023-03-14T00:32:58;12.20;99.90
7360;DHT22;3720;48.274;7.796;2023-03-14T00:35:30;12.20;99.90
7360;DHT22;3720;48.274;7.796;2023-03-14T00:38:02;12.20;99.90
7360;DHT22;3720;48.274;7.796;2023-03-14T00:40:39;12.20;99.90
7360;DHT22;3720;48.274;7.796;2023-03-14T00:43:11;12.10;99.90
7360;DHT22;3720;48.274;7.796;2023-03-14T00:45:43;12.20;99.90
7360;DHT22;3720;48.274;7.796;2023-03-14T00:48:14;12.20;99.90
7360;DHT22;3720;48.274;7.796;2023-03-14T00:50:46;12.20;99.90
7360;DHT22;3720;48.274;7.796;2023-03-14T00:53:19;12.10;99.90
7360;DHT22;3720;48.274;7.796;2023-03-14T00:55:52;12.20;99.90
7360;DHT22;3720;48.274;7.796;2023-03-14T00:58:24;12.20;99.90
7360;DHT22;3720;48.274;7.796;2023-03-14T01:00:56;12.20;99.90
7360;DHT22;3720;48.274;7.796;2023-03-14T01:03:28;12.30;99.90
7360;DHT22;3720;48.274;7.796;2023-03-14T01:06:07;12.20;99.90
7360;DHT22;3720;48.274;7.796;2023-03-14T01:08:40;12.30;99.90
7360;DHT22;3720;48.274;7.796;2023-03-14T01:11:15;12.30;99.90
7360;DHT22;3720;48.274;7.796;2023-03-14T01:13:48;12.30;99.90
7360;DHT22;3720;48.274;7.796;2023-03-14T01:16:22;12.20;99.90
7360;DHT22;3720;48.274;7.796;2023-03-14T01:18:54;12.20;99.90
7360;DHT22;3720;48.274;7.796;2023-03-14T01:21:28;12.20;99.90
7360;DHT22;3720;48.274;7.796;2023-03-14T01:24:03;12.10;99.90
7360;DHT22;3720;48.274;7.796;2023-03-14T01:26:36;12.00;99.90
7360;DHT22;3720;48.274;7.796;2023-03-14T01:29:08;12.00;99.90
7360;DHT22;3720;48.274;7.796;2023-03-14T01:31:40;12.00;99.90
7360;DHT22;3720;48.274;7.796;2023-03-14T01:34:12;11.90;99.90
7360;DHT22;3720;48.274;7.796;2023-03-14T01:36:43;11.90;99.90
7360;DHT22;3720;48.274;7.796;2023-03-14T01:39:15;11.90;99.90
7360;DHT22;3720;48.274;7.796;2023-03-14T01:41:49;11.90;99.90
7360;DHT22;3720;48.274;7.796;2023-03-14T01:44:21;11.90;99.90
7360;DHT22;3720;48.274;7.796;2023-03-14T01:46:52;11.80;99.90
7360;DHT22;3720;48.274;7.796;2023-03-14T01:49:26;11.80;99.90
7360;DHT22;3720;48.274;7.796;2023-03-14T01:52:02;11.80;99.90
7360;DHT22;3720;48.274;7.796;2023-03-14T01:54:37;11.70;99.90
7360;DHT22;3720;48.274;7.796;2023-03-14T01:57:15;11.80;99.90
7360;DHT22;3720;48.274;7.796;2023-03-14T01:59:52;11.70;99.90
7360;DHT22;3720;48.274;7.796;2023-03-14T02:02:26;11.70;99.90
7360;DHT22;3720;48.274;7.796;2023-03-14T02:04:59;11.70;99.90
7360;DHT22;3720;48.274;7.796;2023-03-14T02:07:35;11.70;99.90
7360;DHT22;3720;48.274;7.796;2023-03-14T02:10:09;11.70;99.90
7360;DHT22;3720;48.274;7.796;2023-03-14T02:12:43;11.70;99.90
7360;DHT22;3720;48.274;7.796;2023-03-14T02:15:16;11.70;99.90
7360;DHT22;3720;48.274;7.796;2023-03-14T02:17:49;11.70;99.90
7360;DHT22;3720;48.274;7.796;2023-03-14T02:20:29;11.60;99.90
7360;DHT22;3720;48.274;7.796;2023-03-14T02:23:04;11.70;99.90
7360;DHT22;3720;48.274;7.796;2023-03-14T02:25:41;11.60;99.90
7360;DHT22;3720;48.274;7.796;2023-03-14T02:28:16;11.70;99.90
7360;DHT22;3720;48.274;7.796;2023-03-14T02:30:49;11.70;99.90
7360;DHT22;3720;48.274;7.796;2023-03-14T02:33:21;11.70;99.90
7360;DHT22;3720;48.274;7.796;2023-03-14T02:35:57;11.70;99.90
7360;DHT22;3720;48.274;7.796;2023-03-14T02:38:34;11.70;99.90
7360;DHT22;3720;48.274;7.796;2023-03-14T02:41:08;11.70;99.90
7360;DHT22;3720;48.274;7.796;2023-03-14T02:43:41;11.70;99.90
7360;DHT22;3720;48.274;7.796;2023-03-14T02:46:15;11.70;99.90
7360;DHT22;3720;48.274;7.796;2023-03-14T02:48:51;11.70;99.90
7360;DHT22;3720;48.274;7.796;2023-03-14T02:51:26;11.70;99.90
7360;DHT22;3720;48.274;7.796;2023-03-14T02:53:58;11.70;99.90
7360;DHT22;3720;48.274;7.796;2023-03-14T02:56:30;11.70;99.90
7360;DHT22;3720;48.274;7.796;2023-03-14T02:59:04;11.70;99.90
7360;DHT22;3720;48.274;7.796;2023-03-14T03:01:36;11.70;99.90
7360;DHT22;3720;48.274;7.796;2023-03-14T03:04:07;11.70;99.90
7360;DHT22;3720;48.274;7.796;2023-03-14T03:06:40;11.70;99.90
7360;DHT22;3720;48.274;7.796;2023-03-14T03:09:12;11.60;99.90
7360;DHT22;3720;48.274;7.796;2023-03-14T03:11:44;11.60;99.90
7360;DHT22;3720;48.274;7.796;2023-03-14T03:14:18;11.70;99.90
7360;DHT22;3720;48.274;7.796;2023-03-14T03:16:50;11.60;99.90
7360;DHT22;3720;48.274;7.796;2023-03-14T03:19:22;11.60;99.90
7360;DHT22;3720;48.274;7.796;2023-03-14T03:21:54;11.70;99.90
7360;DHT22;3720;48.274;7.796;2023-03-14T03:24:26;11.70;99.90
7360;DHT22;3720;48.274;7.796;2023-03-14T03:26:58;11.60;99.90
7360;DHT22;3720;48.274;7.796;2023-03-14T03:29:31;11.70;99.90
7360;DHT22;3720;48.274;7.796;2023-03-14T03:32:03;11.60;99.90
7360;DHT22;3720;48.274;7.796;2023-03-14T03:34:35;11.60;99.90
7360;DHT22;3720;48.274;7.796;2023-03-14T03:37:07;11.70;99.90
7360;DHT22;3720;48.274;7.796;2023-03-14T03:39:39;11.70;99.90
7360;DHT22;3720;48.274;7.796;2023-03-14T03:42:11;11.70;99.90
7360;DHT22;3720;48.274;7.796;2023-03-14T03:44:45;11.70;99.90
7360;DHT22;3720;48.274;7.796;2023-03-14T03:47:17;11.60;99.90
7360;DHT22;3720;48.274;7.796;2023-03-14T03:49:49;11.60;99.90
7360;DHT22;3720;48.274;7.796;2023-03-14T03:52:21;11.50;99.90
7360;DHT22;3720;48.274;7.796;2023-03-14T03:54:53;11.60;99.90
7360;DHT22;3720;48.274;7.796;2023-03-14T03:57:25;11.60;99.90
7360;DHT22;3720;48.274;7.796;2023-03-14T03:59:59;11.60;99.90
7360;DHT22;3720;48.274;7.796;2023-03-14T04:02:30;11.60;99.90
7360;DHT22;3720;48.274;7.796;2023-03-14T04:05:02;11.50;99.90
7360;DHT22;3720;48.274;7.796;2023-03-14T04:07:34;11.50;99.90
7360;DHT22;3720;48.274;7.796;2023-03-14T04:10:07;11.50;99.90
7360;DHT22;3720;48.274;7.796;2023-03-14T04:12:39;11.50;99.90
7360;DHT22;3720;48.274;7.796;2023-03-14T04:15:13;11.40;99.90
7360;DHT22;3720;48.274;7.796;2023-03-14T04:17:44;11.40;99.90
7360;DHT22;3720;48.274;7.796;2023-03-14T04:20:17;11.30;99.90
7360;DHT22;3720;48.274;7.796;2023-03-14T04:22:49;11.30;99.90
7360;DHT22;3720;48.274;7.796;2023-03-14T04:25:21;11.30;99.90
7360;DHT22;3720;48.274;7.796;2023-03-14T04:27:53;11.30;99.90
7360;DHT22;3720;48.274;7.796;2023-03-14T04:30:26;11.40;99.90
7360;DHT22;3720;48.274;7.796;2023-03-14T04:32:59;11.40;99.90
7360;DHT22;3720;48.274;7.796;2023-03-14T04:35:31;11.40;99.90
7360;DHT22;3720;48.274;7.796;2023-03-14T04:38:03;11.40;99.90
7360;DHT22;3720;48.274;7.796;2023-03-14T04:40:36;11.40;99.90
7360;DHT22;3720;48.274;7.796;2023-03-14T04:43:09;11.30;99.90
7360;DHT22;3720;48.274;7.796;2023-03-14T04:45:43;11.30;99.90
7360;DHT22;3720;48.274;7.796;2023-03-14T04:48:16;11.40;99.90
7360;DHT22;3720;48.274;7.796;2023-03-14T04:50:48;11.40;99.90
7360;DHT22;3720;48.274;7.796;2023-03-14T04:53:20;11.40;99.90
7360;DHT22;3720;48.274;7.796;2023-03-14T04:55:54;11.40;99.90
7360;DHT22;3720;48.274;7.796;2023-03-14T04:58:25;11.40;99.90
7360;DHT22;3720;48.274;7.796;2023-03-14T05:01:03;11.40;99.90
7360;DHT22;3720;48.274;7.796;2023-03-14T05:03:35;11.40;99.90
7360;DHT22;3720;48.274;7.796;2023-03-14T05:06:08;11.40;99.90
7360;DHT22;3720;48.274;7.796;2023-03-14T05:08:40;11.40;99.90
7360;DHT22;3720;48.274;7.796;2023-03-14T05:11:12;11.30;99.90
7360;DHT22;3720;48.274;7.796;2023-03-14T05:13:44;11.30;99.90
7360;DHT22;3720;48.274;7.796;2023-03-14T05:16:18;11.40;99.90
7360;DHT22;3720;48.274;7.796;2023-03-14T05:18:50;11.40;99.90
7360;DHT22;3720;48.274;7.796;2023-03-14T05:21:22;11.40;99.90
7360;DHT22;3720;48.274;7.796;2023-03-14T05:23:54;11.40;99.90
7360;DHT22;3720;48.274;7.796;2023-03-14T05:26:26;11.40;99.90
7360;DHT22;3720;48.274;7.796;2023-03-14T05:28:57;11.40;99.90
7360;DHT22;3720;48.274;7.796;2023-03-14T05:31:31;11.40;99.90
7360;DHT22;3720;48.274;7.796;2023-03-14T05:34:03;11.50;99.90
7360;DHT22;3720;48.274;7.796;2023-03-14T05:36:34;11.50;99.90
7360;DHT22;3720;48.274;7.796;2023-03-14T05:39:06;11.50;99.90
7360;DHT22;3720;48.274;7.796;2023-03-14T05:41:38;11.50;99.90
7360;DHT22;3720;48.274;7.796;2023-03-14T05:44:10;11.50;99.90
7360;DHT22;3720;48.274;7.796;2023-03-14T05:46:44;11.50;99.90
7360;DHT22;3720;48.274;7.796;2023-03-14T05:49:16;11.50;99.90
7360;DHT22;3720;48.274;7.796;2023-03-14T05:51:48;11.50;99.90
7360;DHT22;3720;48.274;7.796;2023-03-14T05:54:19;11.50;99.90
7360;DHT22;3720;48.274;7.796;2023-03-14T05:56:51;11.50;99.90
7360;DHT22;3720;48.274;7.796;2023-03-14T05:59:23;11.50;99.90
7360;DHT22;3720;48.274;7.796;2023-03-14T06:01:56;11.40;99.90
7360;DHT22;3720;48.274;7.796;2023-03-14T06:04:28;11.40;99.90
7360;DHT22;3720;48.274;7.796;2023-03-14T06:07:00;11.40;99.90
7360;DHT22;3720;48.274;7.796;2023-03-14T06:09:32;11.40;99.90
7360;DHT22;3720;48.274;7.796;2023-03-14T06:12:04;11.50;99.90
7360;DHT22;3720;48.274;7.796;2023-03-14T06:14:36;11.50;99.90
7360;DHT22;3720;48.274;7.796;2023-03-14T06:17:09;11.50;99.90
7360;DHT22;3720;48.274;7.796;2023-03-14T06:19:41;11.50;99.90
7360;DHT22;3720;48.274;7.796;2023-03-14T06:22:13;11.50;99.90
7360;DHT22;3720;48.274;7.796;2023-03-14T06:24:45;11.50;99.90
7360;DHT22;3720;48.274;7.796;2023-03-14T06:27:17;11.50;99.90
7360;DHT22;3720;48.274;7.796;2023-03-14T06:29:49;11.50;99.90
7360;DHT22;3720;48.274;7.796;2023-03-14T06:32:22;11.60;99.90
7360;DHT22;3720;48.274;7.796;2023-03-14T06:34:55;11.60;99.90
7360;DHT22;3720;48.274;7.796;2023-03-14T06:37:27;11.50;99.90
7360;DHT22;3720;48.274;7.796;2023-03-14T06:39:59;11.50;99.90
7360;DHT22;3720;48.274;7.796;2023-03-14T06:42:31;11.60;99.90
7360;DHT22;3720;48.274;7.796;2023-03-14T06:45:04;11.70;99.90
7360;DHT22;3720;48.274;7.796;2023-03-14T06:47:37;11.70;99.90
7360;DHT22;3720;48.274;7.796;2023-03-14T06:50:10;11.70;99.90
7360;DHT22;3720;48.274;7.796;2023-03-14T06:52:42;11.70;99.90
7360;DHT22;3720;48.274;7.796;2023-03-14T06:55:18;11.70;99.90
7360;DHT22;3720;48.274;7.796;2023-03-14T06:57:51;11.80;99.90
7360;DHT22;3720;48.274;7.796;2023-03-14T07:00:23;11.80;99.90
7360;DHT22;3720;48.274;7.796;2023-03-14T07:02:57;11.80;99.90
7360;DHT22;3720;48.274;7.796;2023-03-14T07:05:28;11.80;99.90
7360;DHT22;3720;48.274;7.796;2023-03-14T07:08:01;11.90;99.90
7360;DHT22;3720;48.274;7.796;2023-03-14T07:10:33;11.90;99.90
7360;DHT22;3720;48.274;7.796;2023-03-14T07:13:05;11.90;99.90
7360;DHT22;3720;48.274;7.796;2023-03-14T07:15:37;11.90;99.90
7360;DHT22;3720;48.274;7.796;2023-03-14T07:18:10;11.90;99.90
7360;DHT22;3720;48.274;7.796;2023-03-14T07:20:44;12.00;99.90
7360;DHT22;3720;48.274;7.796;2023-03-14T07:23:17;12.00;99.90
7360;DHT22;3720;48.274;7.796;2023-03-14T07:25:49;12.10;99.90
7360;DHT22;3720;48.274;7.796;2023-03-14T07:28:21;12.10;99.90
7360;DHT22;3720;48.274;7.796;2023-03-14T07:30:53;12.10;99.90
7360;DHT22;3720;48.274;7.796;2023-03-14T07:33:27;12.10;99.90
7360;DHT22;3720;48.274;7.796;2023-03-14T07:35:59;12.20;99.90
7360;DHT22;3720;48.274;7.796;2023-03-14T07:38:31;12.20;99.90
7360;DHT22;3720;48.274;7.796;2023-03-14T07:41:05;12.20;99.90
7360;DHT22;3720;48.274;7.796;2023-03-14T07:43:37;12.10;99.90
7360;DHT22;3720;48.274;7.796;2023-03-14T07:46:09;12.10;99.90
7360;DHT22;3720;48.274;7.796;2023-03-14T07:48:42;12.10;99.90
7360;DHT22;3720;48.274;7.796;2023-03-14T07:51:14;12.10;99.90
7360;DHT22;3720;48.274;7.796;2023-03-14T07:53:46;12.10;99.90
7360;DHT22;3720;48.274;7.796;2023-03-14T07:56:18;12.10;99.90
7360;DHT22;3720;48.274;7.796;2023-03-14T07:58:50;12.00;99.90
7360;DHT22;3720;48.274;7.796;2023-03-14T08:01:22;12.10;99.90
7360;DHT22;3720;48.274;7.796;2023-03-14T08:03:55;12.00;99.90
7360;DHT22;3720;48.274;7.796;2023-03-14T08:06:27;12.00;99.90
7360;DHT22;3720;48.274;7.796;2023-03-14T08:08:59;12.00;99.90
7360;DHT22;3720;48.274;7.796;2023-03-14T08:11:31;12.00;99.90
7360;DHT22;3720;48.274;7.796;2023-03-14T08:14:03;12.00;99.90
7360;DHT22;3720;48.274;7.796;2023-03-14T08:16:35;12.00;99.90
7360;DHT22;3720;48.274;7.796;2023-03-14T08:19:08;11.90;99.90
7360;DHT22;3720;48.274;7.796;2023-03-14T08:21:40;11.90;99.90
7360;DHT22;3720;48.274;7.796;2023-03-14T08:24:12;11.80;99.90
7360;DHT22;3720;48.274;7.796;2023-03-14T08:26:44;11.80;99.90
7360;DHT22;3720;48.274;7.796;2023-03-14T08:29:16;11.70;99.90
7360;DHT22;3720;48.274;7.796;2023-03-14T08:31:48;11.70;99.90
7360;DHT22;3720;48.274;7.796;2023-03-14T08:34:22;11.80;99.90
7360;DHT22;3720;48.274;7.796;2023-03-14T08:36:53;11.80;99.90
7360;DHT22;3720;48.274;7.796;2023-03-14T08:39:27;11.80;99.90
7360;DHT22;3720;48.274;7.796;2023-03-14T08:41:59;11.80;99.90
7360;DHT22;3720;48.274;7.796;2023-03-14T08:44:30;11.80;99.90
7360;DHT22;3720;48.274;7.796;2023-03-14T08:47:03;11.90;99.90
7360;DHT22;3720;48.274;7.796;2023-03-14T08:49:36;11.90;99.90
7360;DHT22;3720;48.274;7.796;2023-03-14T08:52:08;11.90;99.90
7360;DHT22;3720;48.274;7.796;2023-03-14T08:54:40;12.00;99.90
7360;DHT22;3720;48.274;7.796;2023-03-14T08:57:12;12.00;99.90
7360;DHT22;3720;48.274;7.796;2023-03-14T08:59:44;11.90;99.90
7360;DHT22;3720;48.274;7.796;2023-03-14T09:02:16;12.00;99.90
7360;DHT22;3720;48.274;7.796;2023-03-14T09:04:50;12.20;99.90
7360;DHT22;3720;48.274;7.796;2023-03-14T09:07:22;12.30;99.90
7360;DHT22;3720;48.274;7.796;2023-03-14T09:09:54;12.40;99.90
7360;DHT22;3720;48.274;7.796;2023-03-14T09:12:26;12.30;99.90
7360;DHT22;3720;48.274;7.796;2023-03-14T09:14:57;12.40;99.90
7360;DHT22;3720;48.274;7.796;2023-03-14T09:17:29;12.50;99.90
7360;DHT22;3720;48.274;7.796;2023-03-14T09:20:04;12.40;99.90
7360;DHT22;3720;48.274;7.796;2023-03-14T09:22:37;12.40;99.90
7360;DHT22;3720;48.274;7.796;2023-03-14T09:25:10;12.40;99.90
7360;DHT22;3720;48.274;7.796;2023-03-14T09:27:42;12.40;99.90
7360;DHT22;3720;48.274;7.796;2023-03-14T09:30:14;12.30;99.90
7360;DHT22;3720;48.274;7.796;2023-03-14T09:32:47;12.20;99.90
7360;DHT22;3720;48.274;7.796;2023-03-14T09:35:21;12.20;99.90
7360;DHT22;3720;48.274;7.796;2023-03-14T09:37:52;12.20;99.90
7360;DHT22;3720;48.274;7.796;2023-03-14T09:40:30;12.10;99.90
7360;DHT22;3720;48.274;7.796;2023-03-14T09:43:03;12.10;99.90
7360;DHT22;3720;48.274;7.796;2023-03-14T09:45:37;12.00;99.90
7360;DHT22;3720;48.274;7.796;2023-03-14T09:48:15;12.00;99.90
7360;DHT22;3720;48.274;7.796;2023-03-14T09:50:51;11.90;99.90
7360;DHT22;3720;48.274;7.796;2023-03-14T09:53:26;11.80;99.90
7360;DHT22;3720;48.274;7.796;2023-03-14T09:55:58;11.80;99.90
7360;DHT22;3720;48.274;7.796;2023-03-14T09:58:31;11.70;99.90
7360;DHT22;3720;48.274;7.796;2023-03-14T10:01:02;11.70;99.90
7360;DHT22;3720;48.274;7.796;2023-03-14T10:03:35;11.70;99.90
7360;DHT22;3720;48.274;7.796;2023-03-14T10:06:12;11.60;99.90
7360;DHT22;3720;48.274;7.796;2023-03-14T10:08:45;11.60;99.90
7360;DHT22;3720;48.274;7.796;2023-03-14T10:11:17;11.60;99.90
7360;DHT22;3720;48.274;7.796;2023-03-14T10:14:02;11.60;99.90
7360;DHT22;3720;48.274;7.796;2023-03-14T10:16:36;11.60;99.90
7360;DHT22;3720;48.274;7.796;2023-03-14T10:19:11;11.70;99.90
7360;DHT22;3720;48.274;7.796;2023-03-14T10:21:51;11.60;99.90
7360;DHT22;3720;48.274;7.796;2023-03-14T10:24:27;11.60;99.90
7360;DHT22;3720;48.274;7.796;2023-03-14T10:27:02;11.60;99.90
7360;DHT22;3720;48.274;7.796;2023-03-14T10:29:53;11.50;99.90
7360;DHT22;3720;48.274;7.796;2023-03-14T10:32:33;11.50;99.90
7360;DHT22;3720;48.274;7.796;2023-03-14T10:35:11;11.50;99.90
7360;DHT22;3720;48.274;7.796;2023-03-14T10:37:53;11.50;99.90
7360;DHT22;3720;48.274;7.796;2023-03-14T10:40:28;11.60;99.90
7360;DHT22;3720;48.274;7.796;2023-03-14T10:43:03;11.60;99.90
7360;DHT22;3720;48.274;7.796;2023-03-14T10:45:39;11.60;99.90
7360;DHT22;3720;48.274;7.796;2023-03-14T10:48:22;11.60;99.90
7360;DHT22;3720;48.274;7.796;2023-03-14T10:50:56;11.70;99.90
7360;DHT22;3720;48.274;7.796;2023-03-14T10:53:39;11.70;99.90
7360;DHT22;3720;48.274;7.796;2023-03-14T10:56:13;11.70;99.90
7360;DHT22;3720;48.274;7.796;2023-03-14T10:58:49;11.70;99.90
7360;DHT22;3720;48.274;7.796;2023-03-14T11:01:32;11.70;99.90
7360;DHT22;3720;48.274;7.796;2023-03-14T11:04:21;11.70;99.90
7360;DHT22;3720;48.274;7.796;2023-03-14T11:06:59;11.70;99.90
7360;DHT22;3720;48.274;7.796;2023-03-14T11:09:41;11.50;99.90
7360;DHT22;3720;48.274;7.796;2023-03-14T11:12:27;11.20;99.90
7360;DHT22;3720;48.274;7.796;2023-03-14T11:15:05;10.60;99.90
7360;DHT22;3720;48.274;7.796;2023-03-14T11:17:46;10.30;99.90
7360;DHT22;3720;48.274;7.796;2023-03-14T11:20:38;10.30;99.90
7360;DHT22;3720;48.274;7.796;2023-03-14T11:23:17;10.30;99.90
7360;DHT22;3720;48.274;7.796;2023-03-14T11:25:57;10.30;99.90
7360;DHT22;3720;48.274;7.796;2023-03-14T11:28:36;10.40;99.90
7360;DHT22;3720;48.274;7.796;2023-03-14T11:31:14;10.40;99.90
7360;DHT22;3720;48.274;7.796;2023-03-14T11:33:53;10.40;99.90
7360;DHT22;3720;48.274;7.796;2023-03-14T11:36:31;10.50;99.90
7360;DHT22;3720;48.274;7.796;2023-03-14T11:39:07;10.40;99.90
7360;DHT22;3720;48.274;7.796;2023-03-14T11:41:44;10.40;99.90
7360;DHT22;3720;48.274;7.796;2023-03-14T11:44:18;10.40;99.90
7360;DHT22;3720;48.274;7.796;2023-03-14T11:46:53;10.40;99.90
7360;DHT22;3720;48.274;7.796;2023-03-14T11:49:31;10.40;99.90
7360;DHT22;3720;48.274;7.796;2023-03-14T11:52:08;10.30;99.90
7360;DHT22;3720;48.274;7.796;2023-03-14T11:54:44;10.30;99.90
7360;DHT22;3720;48.274;7.796;2023-03-14T11:57:20;10.30;99.90
7360;DHT22;3720;48.274;7.796;2023-03-14T11:59:55;10.40;99.90
7360;DHT22;3720;48.274;7.796;2023-03-14T12:02:35;10.50;99.90
7360;DHT22;3720;48.274;7.796;2023-03-14T12:05:38;10.60;99.90
7360;DHT22;3720;48.274;7.796;2023-03-14T12:08:32;10.70;99.90
7360;DHT22;3720;48.274;7.796;2023-03-14T12:11:09;10.70;99.90
7360;DHT22;3720;48.274;7.796;2023-03-14T12:13:46;10.80;99.90
7360;DHT22;3720;48.274;7.796;2023-03-14T12:16:32;10.80;99.90
7360;DHT22;3720;48.274;7.796;2023-03-14T12:19:25;10.70;99.90
7360;DHT22;3720;48.274;7.796;2023-03-14T12:22:01;10.80;99.90
7360;DHT22;3720;48.274;7.796;2023-03-14T12:24:38;10.80;99.90
7360;DHT22;3720;48.274;7.796;2023-03-14T12:27:47;10.80;99.90
7360;DHT22;3720;48.274;7.796;2023-03-14T12:30:30;10.80;99.90
7360;DHT22;3720;48.274;7.796;2023-03-14T12:33:30;10.90;99.90
7360;DHT22;3720;48.274;7.796;2023-03-14T12:39:30;10.90;99.90
7360;DHT22;3720;48.274;7.796;2023-03-14T12:42:09;10.90;99.90
7360;DHT22;3720;48.274;7.796;2023-03-14T12:44:46;10.80;99.90
7360;DHT22;3720;48.274;7.796;2023-03-14T12:50:42;10.70;99.90
7360;DHT22;3720;48.274;7.796;2023-03-14T12:56:28;10.60;99.90
7360;DHT22;3720;48.274;7.796;2023-03-14T13:02:01;10.60;99.90
7360;DHT22;3720;48.274;7.796;2023-03-14T13:04:35;10.60;99.90
7360;DHT22;3720;48.274;7.796;2023-03-14T13:07:15;10.60;99.90
7360;DHT22;3720;48.274;7.796;2023-03-14T13:10:15;10.60;99.90
7360;DHT22;3720;48.274;7.796;2023-03-14T13:12:51;10.50;99.90
7360;DHT22;3720;48.274;7.796;2023-03-14T13:15:28;10.50;99.90
7360;DHT22;3720;48.274;7.796;2023-03-14T13:18:07;10.40;99.90
7360;DHT22;3720;48.274;7.796;2023-03-14T13:20:45;10.40;99.90
7360;DHT22;3720;48.274;7.796;2023-03-14T13:23:24;10.40;99.90
7360;DHT22;3720;48.274;7.796;2023-03-14T13:25:57;10.40;99.90
7360;DHT22;3720;48.274;7.796;2023-03-14T13:28:32;10.40;99.90
7360;DHT22;3720;48.274;7.796;2023-03-14T13:31:20;10.40;99.90
7360;DHT22;3720;48.274;7.796;2023-03-14T13:33:59;10.40;99.90
7360;DHT22;3720;48.274;7.796;2023-03-14T13:36:32;10.40;99.90
7360;DHT22;3720;48.274;7.796;2023-03-14T13:39:12;10.40;99.90
7360;DHT22;3720;48.274;7.796;2023-03-14T13:41:45;10.40;99.90
7360;DHT22;3720;48.274;7.796;2023-03-14T13:44:31;10.40;99.90
7360;DHT22;3720;48.274;7.796;2023-03-14T13:47:09;10.40;99.90
7360;DHT22;3720;48.274;7.796;2023-03-14T13:49:43;10.40;99.90
7360;DHT22;3720;48.274;7.796;2023-03-14T13:52:29;10.40;99.90
7360;DHT22;3720;48.274;7.796;2023-03-14T13:55:04;10.50;99.90
7360;DHT22;3720;48.274;7.796;2023-03-14T13:57:44;10.50;99.90
7360;DHT22;3720;48.274;7.796;2023-03-14T14:00:19;10.60;99.90
7360;DHT22;3720;48.274;7.796;2023-03-14T14:02:51;10.50;99.90
7360;DHT22;3720;48.274;7.796;2023-03-14T14:05:25;10.40;99.90
7360;DHT22;3720;48.274;7.796;2023-03-14T14:07:58;10.40;99.90
7360;DHT22;3720;48.274;7.796;2023-03-14T14:10:32;10.40;99.90
7360;DHT22;3720;48.274;7.796;2023-03-14T14:13:09;10.40;99.90
7360;DHT22;3720;48.274;7.796;2023-03-14T14:15:45;10.40;99.90
7360;DHT22;3720;48.274;7.796;2023-03-14T14:18:21;10.50;99.90
7360;DHT22;3720;48.274;7.796;2023-03-14T14:20:56;10.40;99.90
7360;DHT22;3720;48.274;7.796;2023-03-14T14:23:29;10.40;99.90
7360;DHT22;3720;48.274;7.796;2023-03-14T14:26:04;10.40;99.90
7360;DHT22;3720;48.274;7.796;2023-03-14T14:28:37;10.40;99.90
7360;DHT22;3720;48.274;7.796;2023-03-14T14:31:21;10.40;99.90
7360;DHT22;3720;48.274;7.796;2023-03-14T14:33:56;10.50;99.90
7360;DHT22;3720;48.274;7.796;2023-03-14T14:36:31;10.60;99.90
7360;DHT22;3720;48.274;7.796;2023-03-14T14:39:15;10.50;99.90
7360;DHT22;3720;48.274;7.796;2023-03-14T14:41:51;10.60;99.90
7360;DHT22;3720;48.274;7.796;2023-03-14T14:44:28;10.60;99.90
7360;DHT22;3720;48.274;7.796;2023-03-14T14:47:03;10.60;99.90
7360;DHT22;3720;48.274;7.796;2023-03-14T14:49:35;10.70;99.90
7360;DHT22;3720;48.274;7.796;2023-03-14T14:52:12;10.70;99.90
7360;DHT22;3720;48.274;7.796;2023-03-14T14:54:45;11.10;99.90
7360;DHT22;3720;48.274;7.796;2023-03-14T14:57:23;11.20;99.90
7360;DHT22;3720;48.274;7.796;2023-03-14T14:59:59;11.20;99.90
7360;DHT22;3720;48.274;7.796;2023-03-14T15:02:37;11.20;99.90
7360;DHT22;3720;48.274;7.796;2023-03-14T15:05:15;11.30;99.90
7360;DHT22;3720;48.274;7.796;2023-03-14T15:07:48;11.40;99.90
7360;DHT22;3720;48.274;7.796;2023-03-14T15:10:22;11.40;99.90
7360;DHT22;3720;48.274;7.796;2023-03-14T15:12:55;11.40;99.90
7360;DHT22;3720;48.274;7.796;2023-03-14T15:15:27;11.50;99.90
7360;DHT22;3720;48.274;7.796;2023-03-14T15:17:59;11.50;99.90
7360;DHT22;3720;48.274;7.796;2023-03-14T15:20:31;11.50;99.90
7360;DHT22;3720;48.274;7.796;2023-03-14T15:23:07;11.40;99.90
7360;DHT22;3720;48.274;7.796;2023-03-14T15:25:40;11.30;99.90
7360;DHT22;3720;48.274;7.796;2023-03-14T15:28:19;11.30;99.90
7360;DHT22;3720;48.274;7.796;2023-03-14T15:30:53;11.30;99.90
7360;DHT22;3720;48.274;7.796;2023-03-14T15:33:26;11.30;99.90
7360;DHT22;3720;48.274;7.796;2023-03-14T15:35:59;11.30;99.90
7360;DHT22;3720;48.274;7.796;2023-03-14T15:38:31;11.20;99.90
7360;DHT22;3720;48.274;7.796;2023-03-14T15:41:03;11.20;99.90
7360;DHT22;3720;48.274;7.796;2023-03-14T15:43:37;11.20;99.90
7360;DHT22;3720;48.274;7.796;2023-03-14T15:46:09;11.20;99.90
7360;DHT22;3720;48.274;7.796;2023-03-14T15:48:42;11.10;99.90
7360;DHT22;3720;48.274;7.796;2023-03-14T15:51:15;11.10;99.90
7360;DHT22;3720;48.274;7.796;2023-03-14T15:53:47;11.00;99.90
7360;DHT22;3720;48.274;7.796;2023-03-14T15:56:20;11.00;99.90
7360;DHT22;3720;48.274;7.796;2023-03-14T15:58:56;11.00;99.90
7360;DHT22;3720;48.274;7.796;2023-03-14T16:01:28;10.90;99.90
7360;DHT22;3720;48.274;7.796;2023-03-14T16:04:02;10.90;99.90
7360;DHT22;3720;48.274;7.796;2023-03-14T16:06:34;10.90;99.90
7360;DHT22;3720;48.274;7.796;2023-03-14T16:09:07;10.80;99.90
7360;DHT22;3720;48.274;7.796;2023-03-14T16:11:39;10.80;99.90
7360;DHT22;3720;48.274;7.796;2023-03-14T16:14:13;10.00;99.90
7360;DHT22;3720;48.274;7.796;2023-03-14T16:16:44;9.30;99.90
7360;DHT22;3720;48.274;7.796;2023-03-14T16:19:16;8.80;99.90
7360;DHT22;3720;48.274;7.796;2023-03-14T16:21:48;8.70;99.90
7360;DHT22;3720;48.274;7.796;2023-03-14T16:24:20;8.60;99.90
7360;DHT22;3720;48.274;7.796;2023-03-14T16:26:52;8.50;99.90
7360;DHT22;3720;48.274;7.796;2023-03-14T16:29:25;8.50;99.90
7360;DHT22;3720;48.274;7.796;2023-03-14T16:31:57;8.60;99.90
7360;DHT22;3720;48.274;7.796;2023-03-14T16:34:28;8.50;99.90
7360;DHT22;3720;48.274;7.796;2023-03-14T16:37:01;8.60;99.90
7360;DHT22;3720;48.274;7.796;2023-03-14T16:39:33;8.60;99.90
7360;DHT22;3720;48.274;7.796;2023-03-14T16:42:05;8.60;99.90
7360;DHT22;3720;48.274;7.796;2023-03-14T16:44:39;8.60;99.90
7360;DHT22;3720;48.274;7.796;2023-03-14T16:47:11;8.50;99.90
7360;DHT22;3720;48.274;7.796;2023-03-14T16:49:43;8.50;99.90
7360;DHT22;3720;48.274;7.796;2023-03-14T16:52:15;8.60;99.90
7360;DHT22;3720;48.274;7.796;2023-03-14T16:54:47;8.60;99.90
7360;DHT22;3720;48.274;7.796;2023-03-14T16:57:18;8.60;99.90
7360;DHT22;3720;48.274;7.796;2023-03-14T16:59:52;8.60;99.90
7360;DHT22;3720;48.274;7.796;2023-03-14T17:02:24;8.80;99.90